Time;durP1;ratioP1;P1;durP2;ratioP2;P2;SDS_P1;SDS_P2;PMS_P1;PMS_P2;Temp;Humidity;BMP_temperature;BMP_pressure;BME280_temperature;BME280_humidity;BME280_pressure;Samples;Min_cycle;Max_cycle;Signal;HPM_P1;HPM_P2
2023/12/19 00:04:44;;;;;;;59.67;37.95;;;;;;;;;;10544828;28;20442;-85
2023/12/19 00:09:48;;;;;;;58.45;37.03;;;;;;;;;;10542347;28;20407;-86
2023/12/19 00:14:50;;;;;;;56.65;35.97;;;;;;;;;;10536235;28;20396;-85
2023/12/19 00:19:56;;;;;;;57.83;32.43;;;;;;;;;;10540629;28;20430;-85
2023/12/19 00:24:58;;;;;;;53.67;33.63;;;;;;;;;;10540501;28;20396;-85
2023/12/19 00:30:01;;;;;;;51.03;32.00;;;;;;;;;;10535400;28;20396;-84
2023/12/19 00:35:06;;;;;;;52.83;31.05;;;;;;;;;;10543871;28;20396;-85
2023/12/19 00:40:12;;;;;;;49.80;30.50;;;;;;;;;;10539030;28;20401;-85
2023/12/19 00:45:14;;;;;;;51.47;30.38;;;;;;;;;;10534948;28;20461;-84
2023/12/19 00:50:18;;;;;;;47.53;29.58;;;;;;;;;;10531723;28;20444;-85
2023/12/19 00:55:20;;;;;;;46.58;28.60;;;;;;;;;;10522391;28;20408;-86
2023/12/19 01:00:23;;;;;;;43.42;27.58;;;;;;;;;;10537556;28;20866;-85
2023/12/19 01:05:27;;;;;;;45.93;28.30;;;;;;;;;;10535362;28;20397;-85
2023/12/19 01:10:29;;;;;;;45.93;27.00;;;;;;;;;;10545033;28;20817;-85
2023/12/19 01:15:31;;;;;;;42.28;25.85;;;;;;;;;;10544654;28;20456;-85
2023/12/19 01:20:35;;;;;;;42.50;25.77;;;;;;;;;;10539060;28;20462;-85
2023/12/19 01:25:39;;;;;;;39.55;25.08;;;;;;;;;;10533091;28;20418;-84
2023/12/19 01:30:42;;;;;;;39.72;24.23;;;;;;;;;;10547172;28;20420;-85
2023/12/19 01:35:46;;;;;;;40.95;25.20;;;;;;;;;;10544592;28;20443;-85
2023/12/19 01:40:48;;;;;;;39.92;25.25;;;;;;;;;;10550419;28;20465;-85
2023/12/19 01:45:51;;;;;;;36.47;24.98;;;;;;;;;;10543923;28;20476;-85
2023/12/19 01:50:55;;;;;;;42.10;26.55;;;;;;;;;;10539954;28;20565;-85
2023/12/19 01:55:58;;;;;;;40.22;25.27;;;;;;;;;;10544543;28;21194;-85
2023/12/19 02:01:01;;;;;;;41.17;24.95;;;;;;;;;;10539775;28;20396;-86
2023/12/19 02:06:06;;;;;;;45.00;26.48;;;;;;;;;;10542885;28;20400;-85
2023/12/19 02:11:08;;;;;;;39.67;25.10;;;;;;;;;;10540494;28;20408;-85
2023/12/19 02:16:10;;;;;;;39.13;26.45;;;;;;;;;;10552995;28;20889;-85
2023/12/19 02:21:14;;;;;;;43.53;26.92;;;;;;;;;;10544672;28;20434;-85
2023/12/19 02:26:18;;;;;;;40.45;24.45;;;;;;;;;;10556480;28;20408;-85
2023/12/19 02:31:21;;;;;;;36.58;23.33;;;;;;;;;;10546881;28;20473;-85
2023/12/19 02:36:24;;;;;;;36.33;22.80;;;;;;;;;;10552478;28;20427;-86
2023/12/19 02:41:28;;;;;;;35.83;22.20;;;;;;;;;;10553145;28;20902;-85
2023/12/19 02:46:32;;;;;;;30.83;21.10;;;;;;;;;;10539746;28;20831;-85
2023/12/19 02:51:34;;;;;;;34.10;21.00;;;;;;;;;;10548056;28;20396;-86
2023/12/19 02:56:38;;;;;;;37.38;21.95;;;;;;;;;;10531739;28;20420;-85
2023/12/19 03:01:40;;;;;;;35.33;22.33;;;;;;;;;;10533034;28;20975;-85
2023/12/19 03:06:42;;;;;;;33.97;21.40;;;;;;;;;;10527746;28;20459;-84
2023/12/19 03:12:02;;;;;;;34.03;21.77;;;;;;;;;;10523582;28;20454;-85
2023/12/19 03:17:05;;;;;;;34.27;21.23;;;;;;;;;;10528963;28;20481;-85
2023/12/19 03:22:08;;;;;;;31.35;19.48;;;;;;;;;;10519654;28;20866;-85
2023/12/19 03:27:12;;;;;;;29.83;18.87;;;;;;;;;;10514376;28;20408;-86
2023/12/19 03:32:14;;;;;;;28.42;18.02;;;;;;;;;;10528482;28;20412;-85
2023/12/19 03:37:16;;;;;;;25.35;18.08;;;;;;;;;;10509252;28;20426;-85
2023/12/19 03:42:20;;;;;;;28.05;18.38;;;;;;;;;;10524991;28;20388;-85
2023/12/19 03:47:22;;;;;;;26.63;17.80;;;;;;;;;;10524397;28;20396;-85
2023/12/19 03:52:25;;;;;;;27.00;17.70;;;;;;;;;;10517355;28;20404;-84
2023/12/19 03:57:29;;;;;;;29.70;17.88;;;;;;;;;;10535885;28;20412;-84
2023/12/19 04:02:31;;;;;;;27.88;18.33;;;;;;;;;;10531773;28;20541;-85
2023/12/19 04:07:33;;;;;;;28.17;16.70;;;;;;;;;;10545723;28;20416;-85
2023/12/19 04:12:37;;;;;;;23.27;15.20;;;;;;;;;;10540410;28;20430;-85
2023/12/19 04:17:40;;;;;;;25.17;16.70;;;;;;;;;;10537701;28;20894;-85
2023/12/19 04:22:43;;;;;;;27.55;18.02;;;;;;;;;;10549234;28;20404;-84
2023/12/19 04:27:47;;;;;;;25.73;16.67;;;;;;;;;;10544869;28;20816;-85
2023/12/19 04:32:49;;;;;;;25.87;17.17;;;;;;;;;;10539554;28;20436;-83
2023/12/19 04:37:51;;;;;;;29.50;18.70;;;;;;;;;;10531522;28;20473;-85
2023/12/19 04:42:55;;;;;;;30.30;18.35;;;;;;;;;;10547847;28;20481;-85
2023/12/19 04:47:58;;;;;;;26.77;17.58;;;;;;;;;;10532236;28;20450;-85
2023/12/19 04:53:00;;;;;;;28.97;17.63;;;;;;;;;;10542635;28;20398;-85
2023/12/19 04:58:05;;;;;;;27.92;17.50;;;;;;;;;;10549921;28;20501;-85
2023/12/19 05:03:07;;;;;;;25.20;16.20;;;;;;;;;;10544787;28;20402;-84
2023/12/19 05:08:10;;;;;;;25.20;15.98;;;;;;;;;;10535841;28;20410;-85
2023/12/19 05:13:14;;;;;;;26.17;15.27;;;;;;;;;;10533469;28;20414;-85
2023/12/19 05:18:18;;;;;;;24.07;15.20;;;;;;;;;;10535892;28;20906;-85
2023/12/19 05:23:20;;;;;;;22.73;14.37;;;;;;;;;;10549472;28;20922;-84
2023/12/19 05:28:24;;;;;;;19.38;12.93;;;;;;;;;;10540904;28;20426;-84
2023/12/19 05:33:28;;;;;;;20.45;13.02;;;;;;;;;;10538863;28;20936;-85
2023/12/19 05:38:32;;;;;;;23.95;13.85;;;;;;;;;;10547104;28;20416;-85
2023/12/19 05:43:35;;;;;;;20.27;13.77;;;;;;;;;;10534558;28;20400;-85
2023/12/19 05:48:38;;;;;;;23.03;13.70;;;;;;;;;;10530072;28;20403;-85
2023/12/19 05:53:40;;;;;;;19.67;13.27;;;;;;;;;;10534025;28;20807;-85
2023/12/19 05:58:46;;;;;;;19.67;13.40;;;;;;;;;;10550121;28;20805;-85
2023/12/19 06:03:49;;;;;;;24.50;15.55;;;;;;;;;;10545210;28;20426;-85
2023/12/19 06:08:51;;;;;;;22.48;15.15;;;;;;;;;;10550788;28;20460;-85
2023/12/19 06:13:55;;;;;;;21.77;14.30;;;;;;;;;;10548370;28;20411;-85
2023/12/19 06:18:57;;;;;;;21.30;14.10;;;;;;;;;;10539882;28;20929;-84
2023/12/19 06:24:00;;;;;;;21.92;14.80;;;;;;;;;;10550875;28;20411;-85
2023/12/19 06:29:04;;;;;;;24.10;14.83;;;;;;;;;;10554708;28;20410;-85
2023/12/19 06:34:06;;;;;;;23.58;14.23;;;;;;;;;;10550114;28;20411;-86
2023/12/19 06:39:09;;;;;;;22.70;14.07;;;;;;;;;;10546849;28;20820;-87
2023/12/19 06:44:13;;;;;;;22.65;13.90;;;;;;;;;;10541156;28;20487;-87
2023/12/19 06:49:17;;;;;;;23.37;14.67;;;;;;;;;;10535089;28;20442;-87
2023/12/19 06:54:20;;;;;;;28.58;17.65;;;;;;;;;;10548917;28;20910;-88
2023/12/19 06:59:24;;;;;;;24.88;15.13;;;;;;;;;;10551619;28;20450;-87
2023/12/19 07:04:26;;;;;;;20.83;13.43;;;;;;;;;;10535780;28;20466;-87
2023/12/19 07:09:29;;;;;;;20.80;13.15;;;;;;;;;;10543022;28;20480;-87
2023/12/19 07:14:33;;;;;;;20.73;13.73;;;;;;;;;;10544699;28;20832;-85
2023/12/19 07:19:35;;;;;;;21.93;13.50;;;;;;;;;;10543592;28;20489;-87
2023/12/19 07:24:38;;;;;;;21.87;13.63;;;;;;;;;;10529095;28;20424;-87
2023/12/19 07:29:41;;;;;;;24.38;15.68;;;;;;;;;;10527061;28;20489;-87
2023/12/19 07:34:44;;;;;;;25.30;17.23;;;;;;;;;;10538462;28;20420;-87
2023/12/19 07:39:46;;;;;;;28.80;16.85;;;;;;;;;;10548151;28;20442;-88
2023/12/19 07:44:51;;;;;;;26.77;16.20;;;;;;;;;;10545867;28;20404;-88
2023/12/19 07:49:54;;;;;;;24.13;15.05;;;;;;;;;;10547179;28;20867;-85
2023/12/19 07:54:56;;;;;;;20.38;14.00;;;;;;;;;;10549241;28;20421;-85
2023/12/19 08:00:00;;;;;;;24.10;15.27;;;;;;;;;;10542454;28;20410;-84
2023/12/19 08:05:04;;;;;;;47.90;24.60;;;;;;;;;;10547269;28;20438;-85
2023/12/19 08:10:07;;;;;;;39.55;20.50;;;;;;;;;;10543368;28;20422;-85
2023/12/19 08:15:12;;;;;;;26.40;16.90;;;;;;;;;;10534166;28;20468;-86
2023/12/19 08:20:15;;;;;;;25.30;15.53;;;;;;;;;;10534097;28;20420;-85
2023/12/19 08:25:18;;;;;;;31.63;19.00;;;;;;;;;;10518493;28;20406;-86
2023/12/19 08:30:24;;;;;;;28.63;16.27;;;;;;;;;;10538869;28;20404;-85
2023/12/19 08:35:27;;;;;;;24.05;13.20;;;;;;;;;;10525439;28;20459;-85
2023/12/19 08:40:29;;;;;;;34.00;20.47;;;;;;;;;;10550797;28;20471;-87
2023/12/19 08:45:33;;;;;;;20.85;14.05;;;;;;;;;;10536301;28;20434;-86
2023/12/19 08:50:35;;;;;;;24.05;14.65;;;;;;;;;;10548452;28;20459;-86
2023/12/19 08:55:37;;;;;;;24.58;14.60;;;;;;;;;;10536026;28;20473;-87
2023/12/19 09:00:41;;;;;;;22.52;14.55;;;;;;;;;;10541865;28;20495;-85
2023/12/19 09:05:44;;;;;;;23.25;14.82;;;;;;;;;;10551405;28;20941;-86
2023/12/19 09:10:47;;;;;;;20.75;13.60;;;;;;;;;;10546566;28;20860;-86
2023/12/19 09:15:50;;;;;;;22.50;13.83;;;;;;;;;;10536019;28;20944;-85
2023/12/19 09:20:53;;;;;;;27.67;14.13;;;;;;;;;;10545635;28;20452;-85
2023/12/19 09:25:55;;;;;;;23.43;14.93;;;;;;;;;;10534547;28;20401;-86
2023/12/19 09:30:59;;;;;;;22.30;14.93;;;;;;;;;;10532848;28;20480;-85
2023/12/19 09:36:02;;;;;;;24.00;16.13;;;;;;;;;;10540235;28;20448;-84
2023/12/19 09:41:05;;;;;;;24.00;15.02;;;;;;;;;;10548910;28;20839;-85
2023/12/19 09:46:09;;;;;;;19.70;14.57;;;;;;;;;;10555126;28;20442;-85
2023/12/19 09:51:20;;;;;;;19.00;13.57;;;;;;;;;;10546182;28;20897;-84
2023/12/19 09:56:23;;;;;;;18.13;12.70;;;;;;;;;;10545274;28;20455;-85
2023/12/19 10:01:28;;;;;;;17.98;13.50;;;;;;;;;;10545841;28;20407;-85
2023/12/19 10:06:30;;;;;;;22.13;14.63;;;;;;;;;;10543746;28;20406;-84
2023/12/19 10:11:33;;;;;;;24.83;14.85;;;;;;;;;;10545214;28;20778;-85
2023/12/19 10:16:40;;;;;;;19.33;14.23;;;;;;;;;;10548716;28;20402;-85
2023/12/19 10:21:43;;;;;;;25.13;16.13;;;;;;;;;;10547283;28;20428;-85
2023/12/19 10:26:45;;;;;;;21.17;14.95;;;;;;;;;;10541385;28;20427;-85
2023/12/19 10:31:49;;;;;;;21.70;13.35;;;;;;;;;;10541551;28;20426;-86
2023/12/19 10:36:51;;;;;;;19.30;13.40;;;;;;;;;;10541655;28;20408;-85
2023/12/19 10:42:04;;;;;;;21.43;13.00;;;;;;;;;;10549427;28;20420;-85
2023/12/19 10:47:10;;;;;;;19.60;12.82;;;;;;;;;;10547153;28;20397;-84
2023/12/19 10:52:13;;;;;;;23.50;15.23;;;;;;;;;;10543197;28;20464;-85
2023/12/19 10:57:17;;;;;;;20.37;13.60;;;;;;;;;;10542783;28;20426;-85
2023/12/19 11:02:34;;;;;;;18.58;11.52;;;;;;;;;;10540302;28;20485;-85
2023/12/19 11:07:38;;;;;;;13.93;10.57;;;;;;;;;;10543825;28;20946;-84
2023/12/19 11:12:42;;;;;;;18.10;12.50;;;;;;;;;;10549564;28;20461;-85
2023/12/19 11:17:52;;;;;;;14.00;10.68;;;;;;;;;;10530799;28;20450;-84
2023/12/19 11:23:02;;;;;;;14.63;9.10;;;;;;;;;;10546756;28;20424;-83
2023/12/19 11:28:06;;;;;;;14.93;9.68;;;;;;;;;;10548737;28;20405;-83
2023/12/19 11:33:12;;;;;;;13.13;9.13;;;;;;;;;;10539405;28;20400;-83
2023/12/19 11:38:24;;;;;;;16.10;9.60;;;;;;;;;;10548092;28;20450;-83
2023/12/19 11:43:54;;;;;;;13.73;9.07;;;;;;;;;;10540462;28;20416;-83
2023/12/19 11:48:58;;;;;;;14.43;10.18;;;;;;;;;;10544408;28;20474;-82
2023/12/19 11:54:00;;;;;;;16.83;10.90;;;;;;;;;;10540537;28;20493;-84
2023/12/19 11:59:03;;;;;;;15.65;10.32;;;;;;;;;;10553126;28;20436;-84
2023/12/19 12:04:08;;;;;;;14.95;10.55;;;;;;;;;;10545102;28;20908;-84
2023/12/19 12:09:11;;;;;;;15.27;10.30;;;;;;;;;;10541770;28;20435;-84
2023/12/19 12:14:13;;;;;;;16.10;10.52;;;;;;;;;;10545169;28;20438;-85
2023/12/19 12:19:19;;;;;;;13.75;10.52;;;;;;;;;;10541096;28;20517;-84
2023/12/19 12:24:22;;;;;;;15.75;11.15;;;;;;;;;;10538951;28;20458;-83
2023/12/19 12:29:37;;;;;;;15.35;11.73;;;;;;;;;;10544958;28;20477;-84
2023/12/19 12:34:41;;;;;;;16.58;11.95;;;;;;;;;;10543296;28;20988;-84
2023/12/19 12:39:43;;;;;;;17.85;11.65;;;;;;;;;;10537794;28;20888;-82
2023/12/19 12:44:45;;;;;;;19.55;13.43;;;;;;;;;;10533208;28;20503;-84
2023/12/19 12:50:01;;;;;;;18.87;14.17;;;;;;;;;;10526862;28;20864;-83
2023/12/19 12:55:06;;;;;;;20.47;13.77;;;;;;;;;;10526725;28;20436;-84
2023/12/19 13:00:09;;;;;;;16.88;13.05;;;;;;;;;;10523413;27;20428;-85
2023/12/19 13:05:13;;;;;;;20.85;13.45;;;;;;;;;;10535780;28;20979;-84
2023/12/19 13:10:16;;;;;;;17.77;13.85;;;;;;;;;;10532513;28;21272;-84
2023/12/19 13:15:18;;;;;;;23.00;15.18;;;;;;;;;;10539764;28;20979;-87
2023/12/19 13:20:22;;;;;;;20.10;14.70;;;;;;;;;;10537696;28;20537;-87
2023/12/19 13:25:25;;;;;;;24.02;15.43;;;;;;;;;;10550029;28;20400;-85
2023/12/19 13:30:27;;;;;;;24.52;16.58;;;;;;;;;;10544430;28;20438;-84
2023/12/19 13:41:20;;;;;;;24.27;18.17;;;;;;;;;;11951727;23;22870;-79
2023/12/19 13:46:23;;;;;;;24.90;17.83;;;;;;;;;;10269562;28;20525;-86
2023/12/19 13:51:26;;;;;;;28.05;18.67;;;;;;;;;;10872871;23;20576;-86
2023/12/19 13:56:31;;;;;;;22.90;17.05;;;;;;;;;;10232240;29;20455;-85
2023/12/19 14:01:35;;;;;;;24.80;17.35;;;;;;;;;;10229815;29;20456;-85
2023/12/19 14:06:37;;;;;;;26.08;18.20;;;;;;;;;;10226330;29;21175;-85
2023/12/19 14:11:41;;;;;;;24.75;17.10;;;;;;;;;;10233137;29;20738;-86
2023/12/19 14:16:43;;;;;;;23.67;17.45;;;;;;;;;;10226335;29;20526;-87
2023/12/19 14:21:46;;;;;;;22.90;17.23;;;;;;;;;;10218165;29;20969;-86
2023/12/19 14:26:49;;;;;;;22.73;17.83;;;;;;;;;;10233567;29;20512;-86
2023/12/19 14:31:52;;;;;;;24.50;17.67;;;;;;;;;;10225958;28;20508;-86
2023/12/19 14:36:54;;;;;;;29.45;20.80;;;;;;;;;;10225204;29;20481;-85
2023/12/19 14:41:58;;;;;;;27.35;18.88;;;;;;;;;;10222546;29;20532;-86
2023/12/19 14:47:00;;;;;;;29.02;20.15;;;;;;;;;;10218233;29;20461;-85
2023/12/19 14:52:03;;;;;;;29.25;20.58;;;;;;;;;;10235699;29;20512;-85
2023/12/19 14:57:07;;;;;;;31.30;20.20;;;;;;;;;;10228076;29;20513;-85
2023/12/19 15:02:09;;;;;;;29.13;20.27;;;;;;;;;;10226572;29;20484;-85
2023/12/19 15:07:12;;;;;;;25.63;19.92;;;;;;;;;;10218706;29;20449;-85
2023/12/19 15:12:15;;;;;;;32.40;19.75;;;;;;;;;;10225440;29;20448;-86
2023/12/19 15:17:18;;;;;;;29.20;20.53;;;;;;;;;;10214711;29;20440;-85
2023/12/19 15:22:21;;;;;;;27.63;19.40;;;;;;;;;;10211866;29;20528;-85
2023/12/19 15:27:25;;;;;;;27.90;19.83;;;;;;;;;;10215277;29;20453;-84
2023/12/19 15:32:28;;;;;;;29.83;19.73;;;;;;;;;;10218679;29;20476;-83
2023/12/19 15:37:31;;;;;;;29.30;19.15;;;;;;;;;;10213852;28;20453;-83
2023/12/19 15:42:34;;;;;;;29.90;19.93;;;;;;;;;;10225165;29;20512;-84
2023/12/19 15:47:37;;;;;;;32.40;21.23;;;;;;;;;;10212933;29;20481;-85
2023/12/19 15:52:40;;;;;;;33.77;22.13;;;;;;;;;;10215420;29;20500;-84
2023/12/19 15:57:44;;;;;;;33.92;21.90;;;;;;;;;;10225594;29;20960;-83
2023/12/19 16:02:46;;;;;;;39.28;25.20;;;;;;;;;;10229066;29;20471;-83
2023/12/19 16:07:48;;;;;;;40.97;23.50;;;;;;;;;;10237626;28;20460;-83
2023/12/19 16:12:52;;;;;;;33.35;22.20;;;;;;;;;;10229162;29;20421;-85
2023/12/19 16:17:54;;;;;;;34.03;21.35;;;;;;;;;;10225726;29;20449;-85
2023/12/19 16:22:57;;;;;;;34.85;21.55;;;;;;;;;;10229268;29;20467;-84
2023/12/19 16:28:01;;;;;;;33.40;20.97;;;;;;;;;;10226561;28;20416;-84
2023/12/19 16:33:03;;;;;;;30.02;20.42;;;;;;;;;;10223218;29;20477;-84
2023/12/19 16:38:06;;;;;;;32.42;21.08;;;;;;;;;;10226525;29;20455;-84
2023/12/19 16:43:10;;;;;;;31.48;20.35;;;;;;;;;;10230124;29;20469;-87
2023/12/19 16:48:12;;;;;;;32.40;21.10;;;;;;;;;;10217373;29;20416;-84
2023/12/19 16:53:16;;;;;;;32.50;20.50;;;;;;;;;;10226259;29;20424;-86
2023/12/19 16:58:23;;;;;;;31.63;21.23;;;;;;;;;;10229859;29;20391;-87
2023/12/19 17:03:25;;;;;;;31.73;21.75;;;;;;;;;;10233177;29;20499;-87
2023/12/19 17:08:28;;;;;;;33.10;21.63;;;;;;;;;;10232389;29;20949;-87
2023/12/19 17:13:32;;;;;;;35.40;23.88;;;;;;;;;;10224780;29;20420;-86
2023/12/19 17:18:34;;;;;;;35.00;25.77;;;;;;;;;;10233646;29;20417;-86
2023/12/19 17:23:37;;;;;;;41.15;26.30;;;;;;;;;;10230577;29;20467;-85
2023/12/19 17:28:40;;;;;;;33.40;24.08;;;;;;;;;;10229819;29;20906;-86
2023/12/19 17:33:43;;;;;;;34.65;23.67;;;;;;;;;;10234437;29;20413;-85
2023/12/19 17:38:45;;;;;;;34.08;23.48;;;;;;;;;;10234944;29;20495;-82
2023/12/19 17:43:49;;;;;;;37.60;24.13;;;;;;;;;;10225307;28;20499;-82
2023/12/19 17:48:52;;;;;;;35.10;25.20;;;;;;;;;;10222280;28;20416;-84
2023/12/19 17:53:54;;;;;;;38.47;24.43;;;;;;;;;;10219205;29;20488;-82
2023/12/19 17:58:58;;;;;;;35.67;22.50;;;;;;;;;;10227566;28;20473;-86
2023/12/19 18:04:00;;;;;;;35.43;24.10;;;;;;;;;;10230395;28;20963;-86
2023/12/19 18:09:04;;;;;;;37.55;25.27;;;;;;;;;;10240259;29;20476;-85
2023/12/19 18:14:10;;;;;;;40.15;25.35;;;;;;;;;;10226562;29;20486;-84
2023/12/19 18:19:12;;;;;;;41.60;24.40;;;;;;;;;;10225673;29;20493;-86
2023/12/19 18:24:15;;;;;;;36.20;23.40;;;;;;;;;;10231505;29;20465;-86
2023/12/19 18:29:23;;;;;;;41.92;25.65;;;;;;;;;;10232136;29;20802;-85
2023/12/19 18:34:25;;;;;;;38.58;25.02;;;;;;;;;;10226428;29;20464;-84
2023/12/19 18:39:28;;;;;;;41.93;25.03;;;;;;;;;;10232335;29;20416;-84
2023/12/19 18:44:38;;;;;;;38.70;25.00;;;;;;;;;;10226877;29;20493;-84
2023/12/19 18:49:50;;;;;;;41.63;27.33;;;;;;;;;;10230047;29;20458;-85
2023/12/19 18:54:53;;;;;;;51.10;28.33;;;;;;;;;;10235773;29;20417;-84
2023/12/19 19:00:00;;;;;;;187.98;82.63;;;;;;;;;;10239542;29;20416;-84
2023/12/19 19:05:04;;;;;;;102.95;51.88;;;;;;;;;;10238771;29;21095;-84
2023/12/19 19:10:13;;;;;;;80.53;43.50;;;;;;;;;;10239972;28;20473;-85
2023/12/19 19:15:17;;;;;;;73.70;40.20;;;;;;;;;;10238741;29;25175;-85
2023/12/19 19:20:37;;;;;;;64.93;36.93;;;;;;;;;;10229800;28;21131;-85
2023/12/19 19:25:51;;;;;;;56.28;32.55;;;;;;;;;;10235422;29;25100;-86
2023/12/19 19:30:56;;;;;;;50.78;31.63;;;;;;;;;;10229429;29;25108;-85
2023/12/19 19:36:00;;;;;;;46.95;29.52;;;;;;;;;;10229621;29;20436;-85
2023/12/19 19:41:06;;;;;;;48.43;29.73;;;;;;;;;;10235366;29;20551;-85
2023/12/19 19:46:18;;;;;;;46.33;29.27;;;;;;;;;;10241532;29;20911;-85
2023/12/19 19:51:23;;;;;;;43.70;29.00;;;;;;;;;;10234869;29;25196;-85
2023/12/19 19:56:25;;;;;;;46.60;30.33;;;;;;;;;;10227677;29;20471;-84
2023/12/19 20:01:30;;;;;;;45.22;29.70;;;;;;;;;;10240175;29;20454;-85
2023/12/19 20:06:34;;;;;;;49.20;29.67;;;;;;;;;;10236944;29;20413;-86
2023/12/19 20:11:38;;;;;;;52.47;31.13;;;;;;;;;;10234443;29;20481;-85
2023/12/19 20:16:43;;;;;;;49.10;30.25;;;;;;;;;;10243680;29;20475;-85
2023/12/19 20:21:48;;;;;;;45.60;30.45;;;;;;;;;;10236764;28;20428;-86
2023/12/19 20:26:50;;;;;;;45.05;29.10;;;;;;;;;;10236116;29;20961;-85
2023/12/19 20:31:54;;;;;;;49.03;30.60;;;;;;;;;;10239730;28;20761;-86
2023/12/19 20:36:57;;;;;;;49.25;29.35;;;;;;;;;;10220271;29;20436;-85
2023/12/19 20:42:00;;;;;;;44.47;28.80;;;;;;;;;;10236929;29;20502;-87
2023/12/19 20:47:04;;;;;;;46.97;30.75;;;;;;;;;;10234700;29;20445;-87
2023/12/19 20:52:07;;;;;;;48.38;30.30;;;;;;;;;;10237472;29;20459;-87
2023/12/19 20:57:09;;;;;;;49.72;30.50;;;;;;;;;;10239729;29;20471;-86
2023/12/19 21:02:13;;;;;;;48.88;29.55;;;;;;;;;;10239122;29;20535;-86
2023/12/19 21:07:16;;;;;;;48.67;30.20;;;;;;;;;;10236551;29;20425;-86
2023/12/19 21:12:19;;;;;;;49.03;30.17;;;;;;;;;;10236164;29;20461;-86
2023/12/19 21:17:23;;;;;;;47.78;29.38;;;;;;;;;;10234018;29;20520;-86
2023/12/19 21:22:26;;;;;;;41.97;28.42;;;;;;;;;;10231471;29;20600;-86
2023/12/19 21:27:28;;;;;;;47.03;29.70;;;;;;;;;;10229063;29;20896;-86
2023/12/19 21:32:32;;;;;;;50.55;30.15;;;;;;;;;;10237623;28;20476;-86
2023/12/19 21:37:35;;;;;;;45.97;30.27;;;;;;;;;;10235593;29;20443;-85
2023/12/19 21:42:38;;;;;;;47.53;31.05;;;;;;;;;;10242333;29;20461;-85
2023/12/19 21:47:41;;;;;;;44.50;28.15;;;;;;;;;;10244147;29;20437;-85
2023/12/19 21:52:44;;;;;;;47.40;29.58;;;;;;;;;;10238413;28;20423;-85
2023/12/19 21:57:46;;;;;;;44.63;27.92;;;;;;;;;;10240534;29;20459;-83
2023/12/19 22:02:50;;;;;;;47.77;28.83;;;;;;;;;;10229831;29;20546;-84
2023/12/19 22:07:52;;;;;;;45.90;28.90;;;;;;;;;;10241100;28;20446;-85
2023/12/19 22:12:55;;;;;;;44.77;28.57;;;;;;;;;;10239372;29;20469;-84
2023/12/19 22:17:59;;;;;;;43.25;27.73;;;;;;;;;;10242065;29;20433;-83
2023/12/19 22:23:01;;;;;;;46.63;29.83;;;;;;;;;;10226116;29;20455;-84
2023/12/19 22:28:05;;;;;;;46.25;28.05;;;;;;;;;;10231239;29;20787;-85
2023/12/19 22:33:09;;;;;;;42.88;27.45;;;;;;;;;;10243013;29;20436;-85
2023/12/19 22:38:11;;;;;;;46.60;27.30;;;;;;;;;;10244881;28;20905;-85
2023/12/19 22:43:14;;;;;;;38.50;26.05;;;;;;;;;;10231643;28;20552;-85
2023/12/19 22:48:18;;;;;;;42.78;27.05;;;;;;;;;;10225440;29;20443;-85
2023/12/19 22:53:20;;;;;;;41.77;26.17;;;;;;;;;;10241019;28;21066;-84
2023/12/19 22:58:23;;;;;;;41.83;26.30;;;;;;;;;;10231582;29;20420;-84
2023/12/19 23:03:27;;;;;;;41.25;26.10;;;;;;;;;;10234850;29;20454;-85
2023/12/19 23:08:29;;;;;;;40.22;25.38;;;;;;;;;;10233772;29;20420;-85
2023/12/19 23:13:32;;;;;;;43.75;25.63;;;;;;;;;;10224976;29;20449;-85
2023/12/19 23:18:38;;;;;;;45.33;24.95;;;;;;;;;;10237551;29;20506;-86
2023/12/19 23:23:40;;;;;;;40.22;25.35;;;;;;;;;;10227506;28;20467;-84
2023/12/19 23:28:43;;;;;;;37.85;24.45;;;;;;;;;;10228036;29;20476;-85
2023/12/19 23:33:46;;;;;;;40.77;24.63;;;;;;;;;;10231625;29;20418;-85
2023/12/19 23:38:49;;;;;;;36.63;23.67;;;;;;;;;;10233388;29;20480;-85
2023/12/19 23:43:52;;;;;;;40.00;25.10;;;;;;;;;;10231531;29;20437;-84
2023/12/19 23:49:12;;;;;;;38.73;24.67;;;;;;;;;;10220602;29;20461;-85
2023/12/19 23:54:15;;;;;;;40.70;24.42;;;;;;;;;;10232876;28;20420;-85
2023/12/19 23:59:17;;;;;;;35.00;23.08;;;;;;;;;;10226078;29;20410;-84
